Home   Weather   USA   Austin   Past weeks
Flag for USA

Past Weather in Austin, Texas, USA — July 2018

Currently: 71 °F. Mild. (Weather station: Camp Mabry / Austin City, USA). See more current weather

July 2018 Weather in Austin — Graph

°F

High & Low Weather Summary for July 2018

 TemperatureHumidityPressure
High109 °F (Jul 23, 4:51 pm)94% (Jul 4, 3:31 pm)30.23 "Hg (Jul 4, 3:31 pm)
Low72 °F (Jul 4, 11:51 pm)19% (Jul 23, 4:51 pm)29.76 "Hg (Jul 23, 6:51 pm)
Average86 °F60%29.98 "Hg
* Reported Jul 1 12:51 am — Jul 31 11:51 pm, Austin. Weather by CustomWeather, © 2023

Note: Actual official high and low records may vary slightly from our data, if they occured in-between our weather recording intervals... More about our weather records

Austin Weather History for July 1, 2018

Scroll right to see more
 ConditionsComfort  
Time TempWeatherWind HumidityBarometerVisibility
12:51 am
Sun, Jul 1
80 °FOvercast.6 mph76%29.92 "Hg10 mi
1:51 am79 °FPassing clouds.6 mph79%29.90 "Hg10 mi
2:51 am78 °FMostly cloudy.8 mph82%29.88 "Hg9 mi
3:51 am78 °FMostly cloudy.6 mph82%29.89 "Hg9 mi
4:51 am78 °FPassing clouds.7 mph79%29.88 "Hg9 mi
5:51 am77 °FPassing clouds.7 mph82%29.90 "Hg9 mi
6:51 am78 °FMostly cloudy.6 mph79%29.91 "Hg9 mi
7:51 am79 °FOvercast.6 mph79%29.93 "Hg8 mi
8:51 am81 °FPartly sunny.8 mph72%29.95 "Hg8 mi
9:51 am85 °FPartly sunny.9 mph61%29.95 "Hg9 mi
10:05 am85 °FScattered clouds.8 mph61%29.99 "Hg9 mi
10:51 am88 °FSunny.8 mph54%29.95 "Hg10 mi
11:51 am91 °FSunny.6 mph47%29.94 "Hg10 mi
12:51 pm96 °FSunny.8 mph35%29.92 "Hg10 mi
1:51 pm100 °FSunny.8 mph29%29.90 "Hg10 mi
2:51 pm101 °FSunny.8 mph25%29.88 "Hg10 mi
3:51 pm103 °FSunny.6 mph23%29.87 "Hg10 mi
4:51 pm103 °FSunny.10 mph22%29.85 "Hg10 mi
5:51 pm101 °FSunny.6 mph25%29.83 "Hg10 mi
6:51 pm98 °FSunny.6 mph28%29.84 "Hg10 mi
7:51 pm94 °FSunny.13 mph37%29.87 "Hg10 mi
8:51 pm91 °FClear.12 mph47%29.90 "Hg10 mi
9:51 pm87 °FClear.6 mph55%29.92 "Hg10 mi
10:51 pm85 °FClear.8 mph59%29.93 "Hg10 mi
11:51 pm82 °FClear.9 mph67%29.96 "Hg10 mi
Weather by CustomWeather, © 2023

See weather overview